Time;durP1;ratioP1;P1;durP2;ratioP2;P2;SDS_P1;SDS_P2;PMS_P1;PMS_P2;Temp;Humidity;BMP_temperature;BMP_pressure;BME280_temperature;BME280_humidity;BME280_pressure;Samples;Min_cycle;Max_cycle;Signal;HPM_P1;HPM_P2
2022/11/24 00:00:17;;;;;;;42.35;17.17;;;0.00;99.90;;;;;;4416653;28;654337;-64
2022/11/24 00:03:04;;;;;;;39.15;15.90;;;0.10;99.90;;;;;;4434823;28;654262;-64
2022/11/24 00:05:51;;;;;;;39.77;15.60;;;0.10;99.90;;;;;;4414868;28;654330;-64
2022/11/24 00:08:39;;;;;;;43.43;17.07;;;0.20;99.90;;;;;;4435041;28;654450;-64
2022/11/24 00:11:28;;;;;;;44.03;17.60;;;0.30;99.90;;;;;;4416143;28;654418;-64
2022/11/24 00:14:15;;;;;;;39.57;16.40;;;0.40;99.90;;;;;;4416375;28;655385;-64
2022/11/24 00:17:02;;;;;;;49.40;18.33;;;0.40;99.90;;;;;;4434685;28;655738;-64
2022/11/24 00:19:50;;;;;;;64.67;20.67;;;0.40;99.90;;;;;;4431342;28;655268;-65
2022/11/24 00:22:37;;;;;;;56.78;20.10;;;0.50;99.90;;;;;;4437837;28;656489;-64
2022/11/24 00:25:24;;;;;;;45.20;18.23;;;0.50;99.90;;;;;;4433744;28;655492;-64
2022/11/24 00:28:13;;;;;;;48.03;17.53;;;0.50;99.90;;;;;;4414102;28;655989;-64
2022/11/24 00:31:00;;;;;;;47.37;18.13;;;0.50;99.90;;;;;;4428794;28;655298;-65
2022/11/24 00:33:48;;;;;;;66.67;22.80;;;0.50;99.90;;;;;;4441010;28;657769;-64
2022/11/24 00:36:35;;;;;;;63.90;20.13;;;0.50;99.90;;;;;;4418130;28;655447;-64
2022/11/24 00:39:22;;;;;;;52.17;19.70;;;0.50;99.90;;;;;;4437020;28;656737;-64
2022/11/24 00:42:09;;;;;;;56.27;18.50;;;0.50;99.90;;;;;;4436696;28;655850;-64
2022/11/24 00:44:58;;;;;;;52.43;19.07;;;0.50;99.90;;;;;;4418051;28;656134;-64
2022/11/24 00:47:45;;;;;;;50.57;18.70;;;0.50;99.90;;;;;;4419385;28;655779;-66
2022/11/24 00:50:32;;;;;;;54.80;19.30;;;0.60;99.90;;;;;;4440703;28;656605;-65
2022/11/24 00:53:19;;;;;;;48.37;19.23;;;0.60;99.90;;;;;;4436533;28;655413;-64
2022/11/24 00:56:06;;;;;;;90.70;26.67;;;0.60;99.90;;;;;;4415957;28;655683;-64
2022/11/24 00:58:54;;;;;;;69.03;23.07;;;0.60;99.90;;;;;;4435758;28;655038;-64
2022/11/24 01:01:42;;;;;;;60.23;21.50;;;0.60;99.90;;;;;;4775262;28;655430;-64
2022/11/24 01:04:29;;;;;;;56.73;18.97;;;0.50;99.90;;;;;;4545316;28;532903;-64
2022/11/24 01:07:16;;;;;;;51.13;17.83;;;0.50;99.90;;;;;;4414185;28;655345;-64
2022/11/24 01:10:04;;;;;;;62.17;19.27;;;0.50;99.90;;;;;;4435672;28;655846;-64
2022/11/24 01:12:51;;;;;;;68.07;22.73;;;0.60;99.90;;;;;;4416736;28;655850;-65
2022/11/24 01:15:38;;;;;;;66.20;24.35;;;0.60;99.90;;;;;;4435099;28;655428;-63
2022/11/24 01:18:27;;;;;;;71.50;22.37;;;0.60;99.90;;;;;;4416271;28;655544;-65
2022/11/24 01:21:14;;;;;;;74.37;23.40;;;0.60;99.90;;;;;;4435096;28;655883;-64
2022/11/24 01:24:01;;;;;;;57.60;19.40;;;0.50;99.90;;;;;;4415701;28;655537;-64
2022/11/24 01:26:48;;;;;;;58.77;19.90;;;0.50;99.90;;;;;;4434993;28;656540;-64
2022/11/24 01:29:35;;;;;;;54.63;18.17;;;0.60;99.90;;;;;;4416056;28;655489;-65
2022/11/24 01:32:22;;;;;;;52.57;19.50;;;0.60;99.90;;;;;;4434952;28;656557;-64
2022/11/24 01:35:11;;;;;;;45.07;17.87;;;0.50;99.90;;;;;;4433472;28;655478;-65
2022/11/24 01:37:59;;;;;;;40.87;15.57;;;0.50;99.90;;;;;;4434111;28;656012;-64
2022/11/24 01:40:46;;;;;;;41.37;15.40;;;0.50;99.90;;;;;;4415714;28;655745;-64
2022/11/24 01:43:33;;;;;;;35.97;14.77;;;0.60;99.90;;;;;;4439106;28;656814;-64
2022/11/24 01:46:22;;;;;;;42.95;14.70;;;0.50;99.90;;;;;;4419097;28;656435;-65
2022/11/24 01:49:11;;;;;;;37.57;13.93;;;0.40;99.90;;;;;;4434729;28;655436;-64
2022/11/24 01:52:03;;;;;;;35.23;13.13;;;0.40;99.90;;;;;;4411846;28;656857;-64
2022/11/24 01:54:53;;;;;;;34.93;13.73;;;0.50;99.90;;;;;;4392967;28;655286;-65
2022/11/24 01:57:42;;;;;;;34.40;12.47;;;0.60;99.90;;;;;;4416110;28;655597;-64
2022/11/24 02:00:29;;;;;;;33.93;13.20;;;0.50;99.90;;;;;;4432684;28;656074;-63
2022/11/24 02:03:18;;;;;;;32.73;12.87;;;0.50;99.90;;;;;;4416847;28;655406;-64
2022/11/24 02:06:07;;;;;;;32.53;12.70;;;0.50;99.90;;;;;;4416416;28;656811;-66
2022/11/24 02:08:58;;;;;;;34.80;13.23;;;0.50;99.90;;;;;;4435532;28;655253;-64
2022/11/24 02:11:45;;;;;;;37.47;12.83;;;0.40;99.90;;;;;;4405405;28;655775;-66
2022/11/24 02:14:32;;;;;;;32.23;12.43;;;0.50;99.90;;;;;;4439376;28;657211;-64
2022/11/24 02:17:19;;;;;;;30.53;12.13;;;0.50;99.90;;;;;;4435189;28;655317;-64
2022/11/24 02:20:07;;;;;;;33.90;13.17;;;0.40;99.90;;;;;;4412488;28;656543;-64
2022/11/24 02:22:59;;;;;;;33.90;12.73;;;0.30;99.90;;;;;;4430797;28;655593;-66
2022/11/24 02:25:53;;;;;;;30.60;12.47;;;0.40;99.90;;;;;;4416250;28;655578;-64
2022/11/24 02:28:41;;;;;;;30.87;12.60;;;0.30;99.90;;;;;;4398916;28;655748;-65
2022/11/24 02:31:28;;;;;;;32.50;12.60;;;0.30;99.90;;;;;;4434618;28;656624;-64
2022/11/24 02:34:15;;;;;;;30.93;13.17;;;0.30;99.90;;;;;;4415956;28;656089;-64
2022/11/24 02:37:03;;;;;;;30.53;13.13;;;0.40;99.90;;;;;;4434657;28;655111;-64
2022/11/24 02:39:50;;;;;;;30.67;12.07;;;0.50;99.90;;;;;;4425907;28;655236;-65
2022/11/24 02:42:40;;;;;;;32.85;12.55;;;0.50;99.90;;;;;;4438691;28;655884;-64
2022/11/24 02:45:30;;;;;;;30.10;12.30;;;0.50;99.90;;;;;;4410233;28;656168;-64
2022/11/24 02:48:17;;;;;;;35.40;13.43;;;0.50;99.90;;;;;;4411836;28;656734;-64
2022/11/24 02:51:04;;;;;;;30.00;12.60;;;0.50;99.90;;;;;;4434063;28;655335;-64
2022/11/24 02:53:51;;;;;;;33.30;13.17;;;0.50;99.90;;;;;;4415897;28;655312;-64
2022/11/24 02:56:38;;;;;;;30.17;12.50;;;0.50;99.90;;;;;;4434551;28;655789;-64
2022/11/24 02:59:26;;;;;;;30.03;12.30;;;0.40;99.90;;;;;;4414763;28;655501;-64
2022/11/24 03:02:14;;;;;;;33.33;13.43;;;0.40;99.90;;;;;;4890345;28;656861;-64
2022/11/24 03:05:01;;;;;;;30.95;13.20;;;0.50;99.90;;;;;;4415076;28;655437;-64
2022/11/24 03:07:48;;;;;;;28.63;12.10;;;0.50;99.90;;;;;;4433802;28;656145;-64
2022/11/24 03:10:35;;;;;;;29.37;12.00;;;0.50;99.90;;;;;;4414814;28;656461;-65
2022/11/24 03:13:22;;;;;;;29.20;12.63;;;0.50;99.90;;;;;;4433728;28;656647;-64
2022/11/24 03:16:10;;;;;;;29.37;12.43;;;0.50;99.90;;;;;;4433446;28;655765;-64
2022/11/24 03:18:58;;;;;;;27.60;12.37;;;0.50;99.90;;;;;;4410482;28;656505;-64
2022/11/24 03:21:45;;;;;;;28.77;12.43;;;0.40;99.90;;;;;;4414342;28;655606;-65
2022/11/24 03:24:32;;;;;;;27.77;11.93;;;0.40;99.90;;;;;;4433502;28;655895;-64
2022/11/24 03:27:20;;;;;;;31.57;12.30;;;0.40;99.90;;;;;;4432256;28;655501;-66
2022/11/24 03:30:08;;;;;;;33.77;12.97;;;0.30;99.90;;;;;;4433466;28;656605;-64
2022/11/24 03:32:55;;;;;;;30.90;12.23;;;0.30;99.90;;;;;;4414748;28;656531;-64
2022/11/24 03:35:44;;;;;;;32.03;13.03;;;0.40;99.90;;;;;;4433027;28;656845;-65
2022/11/24 03:38:31;;;;;;;31.73;12.53;;;0.40;99.90;;;;;;4414834;28;655195;-64
2022/11/24 03:41:18;;;;;;;32.20;13.47;;;0.40;99.90;;;;;;4433400;28;657103;-64
2022/11/24 03:44:05;;;;;;;34.00;13.02;;;0.50;99.90;;;;;;4414120;28;655243;-66
2022/11/24 03:46:52;;;;;;;35.23;12.97;;;0.50;99.90;;;;;;4437543;28;656516;-64
2022/11/24 03:49:40;;;;;;;37.83;13.63;;;0.50;99.90;;;;;;4433317;28;655577;-64
2022/11/24 03:52:28;;;;;;;34.80;12.17;;;0.40;99.90;;;;;;4410657;28;656240;-64
2022/11/24 03:55:15;;;;;;;35.20;13.23;;;0.40;99.90;;;;;;4414449;28;655886;-64
2022/11/24 03:58:03;;;;;;;36.07;13.00;;;0.50;99.90;;;;;;4432671;28;655322;-63
2022/11/24 04:00:50;;;;;;;35.83;12.77;;;0.60;99.90;;;;;;4427264;28;655227;-65
2022/11/24 04:03:37;;;;;;;38.60;13.50;;;0.70;99.90;;;;;;4436258;28;656340;-63
2022/11/24 04:06:24;;;;;;;41.53;13.07;;;0.70;99.90;;;;;;4437253;28;655690;-63
2022/11/24 04:09:13;;;;;;;36.23;13.43;;;0.60;99.90;;;;;;4418662;28;656584;-63
2022/11/24 04:15:06;;;;;;;49.03;15.13;;;0.40;99.90;;;;;;4411280;28;655592;-66
2022/11/24 04:17:54;;;;;;;42.43;14.60;;;0.20;99.90;;;;;;4437001;28;656981;-64
2022/11/24 04:20:41;;;;;;;38.27;14.20;;;0.10;99.90;;;;;;4414930;28;655520;-64
2022/11/24 04:23:28;;;;;;;41.43;14.30;;;0.10;99.90;;;;;;4437381;28;656969;-63
2022/11/24 04:26:17;;;;;;;41.20;14.87;;;0.10;99.90;;;;;;4418483;28;655533;-65
2022/11/24 04:29:04;;;;;;;39.70;13.13;;;0.20;99.90;;;;;;4437015;28;655340;-63
2022/11/24 04:31:51;;;;;;;37.57;12.23;;;0.20;99.90;;;;;;4418485;28;655644;-63
2022/11/24 04:34:38;;;;;;;45.03;13.60;;;0.30;99.90;;;;;;4437129;28;656088;-63
2022/11/24 04:37:25;;;;;;;48.47;15.43;;;0.40;99.90;;;;;;4417832;28;655657;-65
2022/11/24 04:40:13;;;;;;;46.20;15.33;;;0.30;99.90;;;;;;4436875;28;656624;-64
2022/11/24 04:43:01;;;;;;;50.05;16.05;;;0.30;99.90;;;;;;4418254;28;655533;-65
2022/11/24 04:45:49;;;;;;;60.70;17.43;;;0.30;99.90;;;;;;4436516;28;655568;-63
2022/11/24 04:48:36;;;;;;;59.13;17.30;;;0.30;99.90;;;;;;4417907;28;655739;-63
2022/11/24 04:51:23;;;;;;;51.97;16.93;;;0.20;99.90;;;;;;4440612;28;656018;-63
2022/11/24 04:54:10;;;;;;;63.77;18.03;;;0.20;99.90;;;;;;4424537;28;656080;-64
2022/11/24 04:56:58;;;;;;;61.67;19.70;;;0.30;99.90;;;;;;4436545;28;656609;-65
2022/11/24 04:59:46;;;;;;;59.13;21.77;;;0.30;99.90;;;;;;4412492;28;655538;-65
2022/11/24 05:02:34;;;;;;;69.17;22.57;;;0.40;99.90;;;;;;4419229;28;655635;-64
2022/11/24 05:05:21;;;;;;;67.93;22.83;;;0.40;99.90;;;;;;4400603;28;655304;-64
2022/11/24 05:08:08;;;;;;;64.20;22.30;;;0.40;99.90;;;;;;4422732;28;656491;-64
2022/11/24 05:10:55;;;;;;;82.03;23.03;;;0.40;99.90;;;;;;4400117;28;655680;-64
2022/11/24 05:13:42;;;;;;;70.90;22.13;;;0.30;99.90;;;;;;4418558;28;656533;-64
2022/11/24 05:16:31;;;;;;;71.40;21.93;;;0.30;99.90;;;;;;4416614;28;655665;-65
2022/11/24 05:19:18;;;;;;;66.13;21.37;;;0.30;99.90;;;;;;4419031;28;655600;-64
2022/11/24 05:22:06;;;;;;;68.33;21.20;;;0.30;99.90;;;;;;4400281;28;655696;-65
2022/11/24 05:24:53;;;;;;;70.50;23.17;;;0.40;99.90;;;;;;4418786;28;655963;-64
2022/11/24 05:27:40;;;;;;;58.70;17.83;;;0.50;99.90;;;;;;4409604;28;655474;-65
2022/11/24 05:30:27;;;;;;;58.42;16.02;;;0.40;99.90;;;;;;4422673;28;655728;-63
2022/11/24 05:33:17;;;;;;;269.87;21.33;;;0.30;99.90;;;;;;4418789;28;655607;-64
2022/11/24 05:36:06;;;;;;;57.37;16.50;;;0.30;99.90;;;;;;4394728;28;656630;-65
2022/11/24 05:38:53;;;;;;;64.43;16.27;;;0.30;99.90;;;;;;4418685;28;656341;-63
2022/11/24 05:41:41;;;;;;;55.73;16.63;;;0.20;99.90;;;;;;4399515;28;655669;-64
2022/11/24 05:44:29;;;;;;;46.27;14.83;;;0.10;99.90;;;;;;4418598;28;656258;-64
2022/11/24 05:47:16;;;;;;;52.73;14.50;;;0.20;99.90;;;;;;4399255;28;655776;-64
2022/11/24 05:50:04;;;;;;;49.83;14.53;;;0.10;99.90;;;;;;4421897;28;656963;-64
2022/11/24 05:52:51;;;;;;;56.40;16.53;;;0.10;99.90;;;;;;4398957;28;655433;-64
2022/11/24 05:55:39;;;;;;;49.30;16.33;;;0.10;99.90;;;;;;4418299;28;655867;-64
2022/11/24 05:58:26;;;;;;;57.63;15.73;;;0.10;99.90;;;;;;4409371;28;655332;-63
2022/11/24 06:01:13;;;;;;;71.60;17.93;;;0.10;99.90;;;;;;4435319;28;655884;-63
2022/11/24 06:04:00;;;;;;;65.87;18.60;;;0.20;99.90;;;;;;4416614;28;656759;-63
2022/11/24 06:06:49;;;;;;;70.77;18.47;;;0.10;99.90;;;;;;4435395;28;657049;-63
2022/11/24 06:09:37;;;;;;;62.17;18.47;;;0.10;99.90;;;;;;4416399;28;655529;-64
2022/11/24 06:12:24;;;;;;;63.83;18.80;;;0.10;99.90;;;;;;4435142;28;656609;-63
2022/11/24 06:15:11;;;;;;;54.57;17.37;;;0.10;99.90;;;;;;4416216;28;655287;-64
2022/11/24 06:17:58;;;;;;;52.87;16.90;;;0.20;99.90;;;;;;4435331;28;656159;-63
2022/11/24 06:20:45;;;;;;;59.53;17.37;;;0.20;99.90;;;;;;4416424;28;655521;-64
2022/11/24 06:23:34;;;;;;;60.93;17.47;;;0.10;99.90;;;;;;4434957;28;657015;-63
2022/11/24 06:26:21;;;;;;;62.17;17.17;;;0.10;99.90;;;;;;4413230;28;655369;-63
2022/11/24 06:29:08;;;;;;;66.57;16.73;;;0.00;99.90;;;;;;4437897;28;656428;-64
2022/11/24 06:31:55;;;;;;;61.23;17.53;;;0.10;99.90;;;;;;4416474;28;655539;-65
2022/11/24 06:34:42;;;;;;;71.23;19.37;;;0.10;99.90;;;;;;4438675;28;656074;-63
2022/11/24 06:37:29;;;;;;;64.27;18.63;;;0.10;99.90;;;;;;4434982;28;655748;-63
2022/11/24 06:40:18;;;;;;;62.03;18.00;;;0.00;99.90;;;;;;4416028;28;655772;-64
2022/11/24 06:43:05;;;;;;;78.13;18.63;;;0.10;99.90;;;;;;4415887;28;655643;-65
2022/11/24 06:45:52;;;;;;;74.27;19.87;;;0.10;99.90;;;;;;4438800;28;656535;-63
2022/11/24 06:48:39;;;;;;;89.43;21.33;;;0.10;99.90;;;;;;4434514;28;655202;-63
2022/11/24 06:51:27;;;;;;;92.10;20.60;;;0.20;99.90;;;;;;4415810;28;655622;-64
2022/11/24 06:54:14;;;;;;;89.87;22.70;;;0.10;99.90;;;;;;4434395;28;655560;-64
2022/11/24 06:57:03;;;;;;;77.73;21.03;;;0.20;99.90;;;;;;4411586;28;657069;-63
2022/11/24 06:59:50;;;;;;;81.30;21.13;;;0.20;99.90;;;;;;4397337;28;656160;-65
2022/11/24 07:02:38;;;;;;;81.27;23.87;;;0.20;99.90;;;;;;4415951;28;656481;-63
2022/11/24 07:05:25;;;;;;;110.23;24.30;;;0.30;99.90;;;;;;4409417;28;655736;-66
2022/11/24 07:08:12;;;;;;;102.05;22.52;;;0.30;99.90;;;;;;4418943;28;657751;-64
2022/11/24 07:11:04;;;;;;;96.37;20.97;;;0.20;99.90;;;;;;4414647;28;657389;-63
2022/11/24 07:13:52;;;;;;;137.10;26.13;;;0.20;99.90;;;;;;4370572;28;656755;-65
2022/11/24 07:16:40;;;;;;;88.53;22.20;;;0.30;99.90;;;;;;4411726;28;656516;-65
2022/11/24 07:19:27;;;;;;;153.27;26.58;;;0.20;99.90;;;;;;4419885;28;656791;-64
2022/11/24 07:22:14;;;;;;;122.77;24.57;;;0.30;99.90;;;;;;4414970;28;656502;-63
2022/11/24 07:25:03;;;;;;;145.47;25.57;;;0.30;99.90;;;;;;4392927;28;656517;-64
2022/11/24 07:27:55;;;;;;;150.57;26.00;;;0.20;99.90;;;;;;4395910;28;656601;-64
2022/11/24 07:30:44;;;;;;;141.97;25.73;;;0.20;99.90;;;;;;4388656;28;657376;-63
2022/11/24 07:33:31;;;;;;;113.43;24.50;;;0.30;99.90;;;;;;4395710;28;656617;-64
2022/11/24 07:36:18;;;;;;;109.30;25.83;;;0.40;99.90;;;;;;4414446;28;657072;-64
2022/11/24 07:39:06;;;;;;;144.23;26.37;;;0.40;99.90;;;;;;4395887;28;656572;-65
2022/11/24 07:41:53;;;;;;;99.83;26.07;;;0.30;99.90;;;;;;4414183;28;658300;-63
2022/11/24 07:44:40;;;;;;;98.70;25.98;;;0.50;99.90;;;;;;4397216;28;656761;-65
2022/11/24 07:47:29;;;;;;;83.07;24.73;;;0.40;99.90;;;;;;4416040;28;656668;-64
2022/11/24 07:50:17;;;;;;;94.70;25.23;;;0.40;99.90;;;;;;4397112;28;655453;-64
2022/11/24 07:53:04;;;;;;;82.97;25.00;;;0.40;99.90;;;;;;4415496;28;656349;-64
2022/11/24 07:55:53;;;;;;;89.90;24.47;;;0.40;99.90;;;;;;4395882;28;655114;-64
2022/11/24 07:58:40;;;;;;;55.38;19.58;;;0.40;99.90;;;;;;4397626;28;656247;-65
2022/11/24 08:01:27;;;;;;;55.60;17.27;;;0.40;99.90;;;;;;4421162;28;656980;-63
2022/11/24 08:04:16;;;;;;;51.13;18.03;;;0.50;99.90;;;;;;4416867;28;655518;-64
2022/11/24 08:07:03;;;;;;;52.07;17.73;;;0.50;99.90;;;;;;4394196;28;656689;-64
2022/11/24 08:09:51;;;;;;;59.00;19.10;;;0.40;99.90;;;;;;4401943;28;655350;-65
2022/11/24 08:12:38;;;;;;;60.60;19.43;;;0.50;99.90;;;;;;4421459;28;656340;-64
2022/11/24 08:15:25;;;;;;;53.88;18.25;;;0.50;99.90;;;;;;4402873;28;656255;-65
2022/11/24 08:18:12;;;;;;;60.92;18.42;;;0.60;99.90;;;;;;4421318;28;655903;-64
2022/11/24 08:21:01;;;;;;;57.10;19.07;;;0.50;99.90;;;;;;4417148;28;656724;-63
2022/11/24 08:23:48;;;;;;;56.53;17.10;;;0.50;99.90;;;;;;4394222;28;656495;-63
2022/11/24 08:26:35;;;;;;;55.13;17.70;;;0.60;99.90;;;;;;4408356;28;655299;-65
2022/11/24 08:29:22;;;;;;;50.75;16.58;;;0.60;99.90;;;;;;4421072;28;655518;-63
2022/11/24 08:32:09;;;;;;;44.77;16.27;;;0.60;99.90;;;;;;4416816;28;655475;-63
2022/11/24 08:34:56;;;;;;;42.70;14.73;;;0.60;99.90;;;;;;4398177;28;655427;-64
2022/11/24 08:37:45;;;;;;;39.73;14.60;;;0.60;99.90;;;;;;4416900;28;656259;-64
2022/11/24 08:40:32;;;;;;;46.23;15.80;;;0.50;99.90;;;;;;4394030;28;656954;-64
2022/11/24 08:43:19;;;;;;;45.70;16.10;;;0.70;99.90;;;;;;4420330;28;655600;-64
2022/11/24 08:46:07;;;;;;;43.30;15.70;;;0.70;99.90;;;;;;4398043;28;655709;-64
2022/11/24 08:48:54;;;;;;;44.93;15.50;;;0.70;99.90;;;;;;4417449;28;655677;-63
2022/11/24 08:51:42;;;;;;;46.67;16.43;;;0.80;99.90;;;;;;4401026;28;655585;-64
2022/11/24 08:54:30;;;;;;;48.37;16.13;;;1.00;99.90;;;;;;4420056;28;655659;-64
2022/11/24 08:57:17;;;;;;;43.57;17.03;;;0.90;99.90;;;;;;4398399;28;656671;-64
2022/11/24 09:00:05;;;;;;;45.30;16.13;;;0.80;99.90;;;;;;4435523;28;655837;-64
2022/11/24 09:02:56;;;;;;;47.57;17.27;;;0.90;99.90;;;;;;4412868;28;656305;-64
2022/11/24 09:05:43;;;;;;;49.37;17.07;;;0.90;99.90;;;;;;4412820;28;656287;-63
2022/11/24 09:08:30;;;;;;;39.37;15.47;;;1.00;99.90;;;;;;4418818;28;655844;-65
2022/11/24 09:11:19;;;;;;;42.73;15.67;;;1.00;99.90;;;;;;4439650;28;657351;-64
2022/11/24 09:14:06;;;;;;;43.13;15.00;;;0.90;99.90;;;;;;4415486;28;655518;-65
2022/11/24 09:16:53;;;;;;;42.83;15.63;;;0.90;99.90;;;;;;4438925;28;656277;-63
2022/11/24 09:19:40;;;;;;;45.30;16.00;;;0.80;99.90;;;;;;4417340;28;655344;-65
2022/11/24 09:22:27;;;;;;;44.75;16.23;;;0.80;99.90;;;;;;4439664;28;655575;-63
2022/11/24 09:25:14;;;;;;;40.47;15.90;;;0.90;99.90;;;;;;4435130;28;655610;-63
2022/11/24 09:28:03;;;;;;;36.70;13.80;;;0.80;99.90;;;;;;4416684;28;655517;-63
2022/11/24 09:30:50;;;;;;;45.37;16.43;;;0.90;99.90;;;;;;4416978;28;655476;-65
2022/11/24 09:33:37;;;;;;;39.72;16.40;;;1.00;99.90;;;;;;4439528;28;655383;-63
2022/11/24 09:36:25;;;;;;;43.33;17.20;;;1.00;99.90;;;;;;4432872;28;655548;-65
2022/11/24 09:39:12;;;;;;;49.55;18.42;;;0.80;99.90;;;;;;4439354;28;656436;-63
2022/11/24 09:42:07;;;;;;;43.57;16.23;;;0.90;99.90;;;;;;4434766;28;655804;-63
2022/11/24 09:45:30;;;;;;;43.40;16.43;;;0.80;99.90;;;;;;4411919;28;655512;-64
2022/11/24 09:48:22;;;;;;;42.57;17.50;;;0.80;99.90;;;;;;4389111;28;656700;-63
2022/11/24 09:51:11;;;;;;;38.42;16.75;;;0.80;99.90;;;;;;4412196;28;655824;-63
2022/11/24 09:54:01;;;;;;;34.57;14.60;;;0.80;99.90;;;;;;4412452;28;656183;-63
2022/11/24 09:56:50;;;;;;;37.50;16.30;;;0.80;99.90;;;;;;4412592;28;657403;-63
2022/11/24 09:59:37;;;;;;;38.23;15.90;;;0.80;99.90;;;;;;4394630;28;656728;-64
2022/11/24 10:02:24;;;;;;;36.97;15.83;;;0.90;99.90;;;;;;4417662;28;655734;-64
2022/11/24 10:05:13;;;;;;;47.93;17.80;;;0.80;99.90;;;;;;4397600;28;655404;-64
2022/11/24 10:08:07;;;;;;;41.53;17.63;;;0.90;99.90;;;;;;4398466;28;655918;-64
2022/11/24 10:10:58;;;;;;;35.37;13.63;;;0.80;99.90;;;;;;4393143;28;656138;-64
2022/11/24 10:14:09;;;;;;;37.50;16.53;;;1.00;99.90;;;;;;4400985;28;655544;-64
2022/11/24 10:16:59;;;;;;;42.97;17.00;;;0.90;99.90;;;;;;4394185;28;656300;-63
2022/11/24 10:19:47;;;;;;;44.17;19.50;;;0.90;99.90;;;;;;4398304;28;655601;-64
2022/11/24 10:22:42;;;;;;;47.43;19.53;;;0.80;99.90;;;;;;4416820;28;656225;-63
2022/11/24 10:25:34;;;;;;;36.77;15.13;;;0.70;99.90;;;;;;4394299;28;655339;-63
2022/11/24 10:28:21;;;;;;;51.97;21.93;;;0.80;99.90;;;;;;4394998;28;655495;-63
2022/11/24 10:31:20;;;;;;;47.40;21.67;;;0.80;99.90;;;;;;4420618;28;656820;-62
2022/11/24 10:34:11;;;;;;;53.47;23.17;;;0.80;99.90;;;;;;4369934;28;656623;-63
2022/11/24 10:37:00;;;;;;;48.03;21.53;;;0.80;99.90;;;;;;4394056;28;656901;-63
2022/11/24 10:39:53;;;;;;;52.17;22.13;;;0.80;99.90;;;;;;4393790;28;656338;-63
2022/11/24 10:42:41;;;;;;;52.03;23.60;;;0.70;99.90;;;;;;4357758;28;655667;-63
2022/11/24 10:45:29;;;;;;;38.13;15.68;;;0.70;99.90;;;;;;4402898;28;655858;-63
2022/11/24 10:48:19;;;;;;;59.27;24.87;;;0.70;99.90;;;;;;4380233;28;656250;-63
2022/11/24 10:51:29;;;;;;;1243.60;64.13;;;0.70;99.90;;;;;;4380418;28;656253;-63
2022/11/24 10:54:17;;;;;;;59.83;22.43;;;0.80;99.90;;;;;;4377869;28;658050;-63
2022/11/24 10:57:06;;;;;;;54.37;24.40;;;0.70;99.90;;;;;;4398945;28;655201;-63
2022/11/24 10:59:53;;;;;;;57.20;21.90;;;0.70;99.90;;;;;;4393943;28;656451;-63
2022/11/24 11:02:40;;;;;;;58.80;24.43;;;0.70;99.90;;;;;;4401450;28;655372;-64
2022/11/24 11:05:40;;;;;;;57.80;22.77;;;0.70;99.90;;;;;;4420915;28;656614;-63
2022/11/24 11:08:28;;;;;;;67.47;26.27;;;0.60;99.90;;;;;;4372517;28;655382;-63
2022/11/24 11:11:19;;;;;;;70.67;27.50;;;0.60;99.90;;;;;;4399136;28;656141;-64
2022/11/24 11:14:08;;;;;;;67.87;26.63;;;0.70;99.90;;;;;;4396217;28;655430;-63
2022/11/24 11:16:56;;;;;;;75.30;28.57;;;0.60;99.90;;;;;;4397614;28;655366;-64
2022/11/24 11:19:43;;;;;;;82.57;29.50;;;0.60;99.90;;;;;;4416158;28;656656;-63
2022/11/24 11:22:31;;;;;;;80.97;30.13;;;0.60;99.90;;;;;;4397784;28;655634;-63
2022/11/24 11:25:20;;;;;;;80.07;30.10;;;0.60;99.90;;;;;;4415764;28;656233;-63
2022/11/24 11:28:18;;;;;;;73.30;28.97;;;0.70;99.90;;;;;;4393619;28;657178;-63
2022/11/24 11:31:08;;;;;;;75.07;27.50;;;0.70;99.90;;;;;;4388299;28;656113;-65
2022/11/24 11:33:57;;;;;;;72.47;28.63;;;0.70;99.90;;;;;;4397269;28;655452;-65
2022/11/24 11:36:46;;;;;;;69.13;27.17;;;0.70;99.90;;;;;;4416321;28;655152;-62
2022/11/24 11:39:34;;;;;;;64.43;25.02;;;0.70;99.90;;;;;;4393420;28;657008;-63
2022/11/24 11:42:25;;;;;;;64.40;27.07;;;0.70;99.90;;;;;;4413827;28;655719;-63
2022/11/24 11:45:14;;;;;;;67.67;27.63;;;0.80;99.90;;;;;;4411289;28;656718;-64
2022/11/24 11:48:21;;;;;;;58.33;25.47;;;0.80;99.90;;;;;;4415422;28;656420;-63
2022/11/24 11:51:22;;;;;;;52.50;22.87;;;0.80;99.90;;;;;;4411232;28;656432;-63
2022/11/24 11:54:11;;;;;;;55.00;23.87;;;0.80;99.90;;;;;;4411150;28;655748;-63
2022/11/24 11:57:02;;;;;;;52.60;22.50;;;0.80;99.90;;;;;;4411181;28;656646;-63
2022/11/24 12:00:03;;;;;;;53.50;22.27;;;0.80;99.90;;;;;;4390491;28;655855;-65
2022/11/24 12:03:09;;;;;;;34.13;14.93;;;0.90;99.90;;;;;;4374703;28;655418;-64
2022/11/24 12:06:00;;;;;;;42.87;18.67;;;0.90;99.90;;;;;;4397562;28;655393;-64
2022/11/24 12:08:51;;;;;;;40.27;16.40;;;0.80;99.90;;;;;;4397568;28;655990;-63
2022/11/24 12:11:41;;;;;;;44.30;19.05;;;0.80;99.90;;;;;;4393597;28;656813;-63
2022/11/24 12:14:30;;;;;;;44.47;18.13;;;0.70;99.90;;;;;;4393560;28;656980;-64
2022/11/24 12:17:21;;;;;;;39.00;18.13;;;0.70;99.90;;;;;;4393705;28;657441;-63
2022/11/24 12:20:21;;;;;;;46.00;19.87;;;0.80;99.90;;;;;;4393560;28;656159;-63
2022/11/24 12:23:12;;;;;;;44.47;20.20;;;1.00;99.90;;;;;;4392991;28;655705;-63
2022/11/24 12:26:02;;;;;;;33.73;15.83;;;1.00;99.90;;;;;;4396869;28;655638;-63
2022/11/24 12:28:53;;;;;;;42.27;18.80;;;1.00;99.90;;;;;;4396966;28;655741;-62
2022/11/24 12:31:46;;;;;;;45.20;19.73;;;1.00;99.90;;;;;;4377993;28;655657;-64
2022/11/24 12:34:38;;;;;;;41.77;19.43;;;1.10;99.90;;;;;;4396815;28;656158;-63
2022/11/24 12:37:35;;;;;;;33.13;14.73;;;1.00;99.90;;;;;;4375756;28;655961;-64
2022/11/24 12:40:27;;;;;;;42.77;17.50;;;1.00;99.90;;;;;;4375379;28;657191;-64
2022/11/24 12:43:19;;;;;;;42.80;19.73;;;0.80;99.90;;;;;;4396759;28;655602;-63
2022/11/24 12:46:08;;;;;;;43.83;19.13;;;0.90;99.90;;;;;;4373890;28;656155;-63
2022/11/24 12:49:00;;;;;;;36.30;16.37;;;1.00;99.90;;;;;;4400515;28;655906;-63
2022/11/24 12:51:48;;;;;;;40.03;17.10;;;1.00;99.90;;;;;;4398606;28;656195;-62
2022/11/24 12:54:38;;;;;;;41.03;18.27;;;0.90;99.90;;;;;;4400866;28;655458;-63
2022/11/24 12:57:28;;;;;;;45.23;18.30;;;0.90;99.90;;;;;;4403112;28;657069;-63
2022/11/24 13:00:19;;;;;;;38.93;16.93;;;0.90;99.90;;;;;;4455343;28;655152;-63
2022/11/24 13:03:16;;;;;;;36.43;16.87;;;0.80;99.90;;;;;;4847341;28;532800;-63
2022/11/24 13:06:06;;;;;;;39.20;17.27;;;0.80;99.90;;;;;;4413925;28;656348;-63
2022/11/24 13:08:53;;;;;;;33.43;16.50;;;0.90;99.90;;;;;;4413608;28;655552;-63
2022/11/24 13:11:43;;;;;;;39.57;17.70;;;0.90;99.90;;;;;;4417527;28;656362;-64
2022/11/24 13:14:31;;;;;;;36.67;18.43;;;0.90;99.90;;;;;;4419660;28;655353;-64
2022/11/24 13:17:27;;;;;;;38.67;17.97;;;0.90;99.90;;;;;;4440042;28;655730;-63
2022/11/24 13:20:15;;;;;;;37.10;17.07;;;1.00;99.90;;;;;;4413533;28;655411;-63
2022/11/24 13:23:03;;;;;;;37.67;17.20;;;1.00;99.90;;;;;;4411665;28;656695;-63
2022/11/24 13:26:13;;;;;;;38.23;15.17;;;0.80;99.90;;;;;;4417449;28;656048;-64
2022/11/24 13:29:03;;;;;;;39.33;18.27;;;0.90;99.90;;;;;;4393588;28;656486;-64
2022/11/24 13:31:50;;;;;;;36.47;18.07;;;0.90;99.90;;;;;;4417583;28;655287;-64
2022/11/24 13:35:11;;;;;;;29.27;13.17;;;0.90;99.90;;;;;;4435597;28;656914;-62
2022/11/24 13:37:58;;;;;;;38.53;17.57;;;0.80;99.90;;;;;;4412015;28;655723;-63
2022/11/24 13:40:46;;;;;;;27.07;11.30;;;0.70;99.90;;;;;;4416985;28;655256;-64
2022/11/24 13:43:33;;;;;;;39.60;17.37;;;0.90;99.90;;;;;;4440016;28;656324;-64
2022/11/24 13:46:43;;;;;;;31.23;14.73;;;0.90;99.90;;;;;;4425642;28;657032;-64
2022/11/24 13:49:38;;;;;;;32.87;14.67;;;0.90;99.90;;;;;;4394376;28;656467;-64
2022/11/24 13:52:45;;;;;;;32.83;15.07;;;1.00;99.90;;;;;;4406652;28;655190;-65
2022/11/24 13:55:34;;;;;;;29.67;13.77;;;0.80;99.90;;;;;;4390080;28;656573;-63
2022/11/24 13:58:31;;;;;;;26.30;13.00;;;0.80;99.90;;;;;;4416239;28;655514;-63
2022/11/24 14:01:19;;;;;;;26.67;12.20;;;0.80;99.90;;;;;;4412062;28;655610;-63
2022/11/24 14:04:16;;;;;;;21.73;11.20;;;0.90;99.90;;;;;;4411987;28;656634;-63
2022/11/24 14:07:04;;;;;;;22.43;10.20;;;0.80;99.90;;;;;;4411827;28;656675;-63
2022/11/24 14:09:51;;;;;;;20.53;9.97;;;0.80;99.90;;;;;;4415932;28;655521;-64
2022/11/24 14:12:38;;;;;;;25.03;11.57;;;0.80;99.90;;;;;;4435727;28;655336;-63
2022/11/24 14:15:28;;;;;;;22.60;11.00;;;0.80;99.90;;;;;;4415818;28;655548;-63
2022/11/24 14:18:20;;;;;;;23.50;11.30;;;0.70;99.90;;;;;;4417490;28;655687;-65